sensor_id;sensor_type;location;lat;lon;timestamp;P1;durP1;ratioP1;P2;durP2;ratioP2
11865;SDS011;5992;52.744;6.898;2023-01-23T00:03:14;8.30;;;4.10;;
11865;SDS011;5992;52.744;6.898;2023-01-23T00:06:14;3.80;;;3.40;;
11865;SDS011;5992;52.744;6.898;2023-01-23T00:09:38;4.53;;;3.63;;
11865;SDS011;5992;52.744;6.898;2023-01-23T00:12:39;5.93;;;3.77;;
11865;SDS011;5992;52.744;6.898;2023-01-23T00:16:05;4.87;;;3.83;;
11865;SDS011;5992;52.744;6.898;2023-01-23T00:19:17;5.03;;;4.00;;
11865;SDS011;5992;52.744;6.898;2023-01-23T00:22:29;5.10;;;3.55;;
11865;SDS011;5992;52.744;6.898;2023-01-23T00:25:29;5.40;;;3.75;;
11865;SDS011;5992;52.744;6.898;2023-01-23T00:28:41;4.40;;;4.00;;
11865;SDS011;5992;52.744;6.898;2023-01-23T00:31:54;5.27;;;4.13;;
11865;SDS011;5992;52.744;6.898;2023-01-23T00:35:18;4.47;;;3.70;;
11865;SDS011;5992;52.744;6.898;2023-01-23T00:38:18;5.53;;;3.60;;
11865;SDS011;5992;52.744;6.898;2023-01-23T00:41:30;4.70;;;3.93;;
11865;SDS011;5992;52.744;6.898;2023-01-23T00:44:42;5.30;;;4.20;;
11865;SDS011;5992;52.744;6.898;2023-01-23T00:47:56;4.65;;;4.05;;
11865;SDS011;5992;52.744;6.898;2023-01-23T00:51:21;5.63;;;4.30;;
11865;SDS011;5992;52.744;6.898;2023-01-23T00:54:47;9.43;;;5.13;;
11865;SDS011;5992;52.744;6.898;2023-01-23T00:57:59;7.30;;;4.53;;
11865;SDS011;5992;52.744;6.898;2023-01-23T01:01:12;9.70;;;4.05;;
11865;SDS011;5992;52.744;6.898;2023-01-23T01:04:25;5.30;;;3.85;;
11865;SDS011;5992;52.744;6.898;2023-01-23T01:07:50;5.67;;;3.77;;
11865;SDS011;5992;52.744;6.898;2023-01-23T01:10:50;6.60;;;3.70;;
11865;SDS011;5992;52.744;6.898;2023-01-23T01:14:03;5.43;;;3.70;;
11865;SDS011;5992;52.744;6.898;2023-01-23T01:17:15;6.43;;;4.03;;
11865;SDS011;5992;52.744;6.898;2023-01-23T01:20:22;6.47;;;3.80;;
11865;SDS011;5992;52.744;6.898;2023-01-23T01:23:37;5.55;;;4.30;;
11865;SDS011;5992;52.744;6.898;2023-01-23T01:27:01;5.83;;;4.10;;
11865;SDS011;5992;52.744;6.898;2023-01-23T01:30:13;7.65;;;4.40;;
11865;SDS011;5992;52.744;6.898;2023-01-23T01:33:38;6.93;;;3.90;;
11865;SDS011;5992;52.744;6.898;2023-01-23T01:36:51;5.87;;;4.03;;
11865;SDS011;5992;52.744;6.898;2023-01-23T01:40:18;7.13;;;4.40;;
11865;SDS011;5992;52.744;6.898;2023-01-23T01:43:28;4.50;;;4.05;;
11865;SDS011;5992;52.744;6.898;2023-01-23T01:46:53;5.90;;;4.00;;
11865;SDS011;5992;52.744;6.898;2023-01-23T01:50:05;7.90;;;4.13;;
11865;SDS011;5992;52.744;6.898;2023-01-23T01:53:18;5.40;;;3.93;;
11865;SDS011;5992;52.744;6.898;2023-01-23T01:56:31;6.30;;;4.40;;
11865;SDS011;5992;52.744;6.898;2023-01-23T01:59:56;4.67;;;4.03;;
11865;SDS011;5992;52.744;6.898;2023-01-23T02:03:19;5.40;;;4.40;;
11865;SDS011;5992;52.744;6.898;2023-01-23T02:06:31;12.55;;;4.75;;
11865;SDS011;5992;52.744;6.898;2023-01-23T02:09:57;6.83;;;4.67;;
11865;SDS011;5992;52.744;6.898;2023-01-23T02:13:22;5.10;;;4.60;;
11865;SDS011;5992;52.744;6.898;2023-01-23T02:16:33;8.07;;;4.83;;
11865;SDS011;5992;52.744;6.898;2023-01-23T02:19:58;7.40;;;4.07;;
11865;SDS011;5992;52.744;6.898;2023-01-23T02:23:13;7.60;;;4.67;;
11865;SDS011;5992;52.744;6.898;2023-01-23T02:26:39;6.10;;;3.60;;
11865;SDS011;5992;52.744;6.898;2023-01-23T02:30:07;8.07;;;4.37;;
11865;SDS011;5992;52.744;6.898;2023-01-23T02:33:44;6.00;;;4.10;;
11865;SDS011;5992;52.744;6.898;2023-01-23T02:37:08;9.53;;;5.17;;
11865;SDS011;5992;52.744;6.898;2023-01-23T02:40:33;6.25;;;3.65;;
11865;SDS011;5992;52.744;6.898;2023-01-23T02:43:58;6.10;;;4.53;;
11865;SDS011;5992;52.744;6.898;2023-01-23T02:47:22;4.80;;;4.00;;
11865;SDS011;5992;52.744;6.898;2023-01-23T02:50:34;7.03;;;4.33;;
11865;SDS011;5992;52.744;6.898;2023-01-23T02:53:50;5.27;;;4.30;;
11865;SDS011;5992;52.744;6.898;2023-01-23T02:56:50;6.20;;;4.50;;
11865;SDS011;5992;52.744;6.898;2023-01-23T03:00:04;4.40;;;4.00;;
11865;SDS011;5992;52.744;6.898;2023-01-23T03:03:15;4.47;;;4.07;;
11865;SDS011;5992;52.744;6.898;2023-01-23T03:06:27;4.85;;;4.30;;
11865;SDS011;5992;52.744;6.898;2023-01-23T03:09:39;6.87;;;4.73;;
11865;SDS011;5992;52.744;6.898;2023-01-23T03:12:51;5.53;;;4.00;;
11865;SDS011;5992;52.744;6.898;2023-01-23T03:16:05;6.17;;;4.30;;
11865;SDS011;5992;52.744;6.898;2023-01-23T03:19:33;4.90;;;4.50;;
11865;SDS011;5992;52.744;6.898;2023-01-23T03:22:45;4.83;;;3.93;;
11865;SDS011;5992;52.744;6.898;2023-01-23T03:25:57;6.03;;;4.40;;
11865;SDS011;5992;52.744;6.898;2023-01-23T03:29:10;4.50;;;4.10;;
11865;SDS011;5992;52.744;6.898;2023-01-23T03:32:42;7.70;;;5.03;;
11865;SDS011;5992;52.744;6.898;2023-01-23T03:36:06;5.97;;;4.27;;
11865;SDS011;5992;52.744;6.898;2023-01-23T03:39:19;4.90;;;3.83;;
11865;SDS011;5992;52.744;6.898;2023-01-23T03:42:52;6.55;;;4.30;;
11865;SDS011;5992;52.744;6.898;2023-01-23T03:46:05;6.00;;;4.63;;
11865;SDS011;5992;52.744;6.898;2023-01-23T03:49:19;5.87;;;4.30;;
11865;SDS011;5992;52.744;6.898;2023-01-23T03:52:47;5.33;;;4.60;;
11865;SDS011;5992;52.744;6.898;2023-01-23T03:55:47;5.83;;;4.33;;
11865;SDS011;5992;52.744;6.898;2023-01-23T03:58:59;5.63;;;4.50;;
11865;SDS011;5992;52.744;6.898;2023-01-23T04:02:18;5.80;;;3.70;;
11865;SDS011;5992;52.744;6.898;2023-01-23T04:05:32;7.40;;;5.00;;
11865;SDS011;5992;52.744;6.898;2023-01-23T04:08:56;5.95;;;4.45;;
11865;SDS011;5992;52.744;6.898;2023-01-23T04:12:20;6.20;;;4.33;;
11865;SDS011;5992;52.744;6.898;2023-01-23T04:15:20;6.87;;;4.67;;
11865;SDS011;5992;52.744;6.898;2023-01-23T04:18:34;6.63;;;4.77;;
11865;SDS011;5992;52.744;6.898;2023-01-23T04:21:48;4.83;;;4.20;;
11865;SDS011;5992;52.744;6.898;2023-01-23T04:25:13;6.35;;;5.15;;
11865;SDS011;5992;52.744;6.898;2023-01-23T04:28:25;7.45;;;5.40;;
11865;SDS011;5992;52.744;6.898;2023-01-23T04:31:39;6.67;;;4.20;;
11865;SDS011;5992;52.744;6.898;2023-01-23T04:35:03;4.90;;;4.40;;
11865;SDS011;5992;52.744;6.898;2023-01-23T04:38:17;5.57;;;5.07;;
11865;SDS011;5992;52.744;6.898;2023-01-23T04:41:43;6.20;;;5.30;;
11865;SDS011;5992;52.744;6.898;2023-01-23T04:44:57;5.10;;;4.50;;
11865;SDS011;5992;52.744;6.898;2023-01-23T04:48:09;8.60;;;5.60;;
11865;SDS011;5992;52.744;6.898;2023-01-23T04:51:33;5.83;;;5.13;;
11865;SDS011;5992;52.744;6.898;2023-01-23T04:54:49;6.43;;;4.47;;
11865;SDS011;5992;52.744;6.898;2023-01-23T04:58:15;6.00;;;5.00;;
11865;SDS011;5992;52.744;6.898;2023-01-23T05:01:43;4.97;;;4.43;;
11865;SDS011;5992;52.744;6.898;2023-01-23T05:05:08;7.37;;;4.93;;
11865;SDS011;5992;52.744;6.898;2023-01-23T05:08:32;6.77;;;5.10;;
11865;SDS011;5992;52.744;6.898;2023-01-23T05:11:58;6.53;;;4.83;;
11865;SDS011;5992;52.744;6.898;2023-01-23T05:15:23;5.93;;;4.07;;
11865;SDS011;5992;52.744;6.898;2023-01-23T05:18:36;10.10;;;5.17;;
11865;SDS011;5992;52.744;6.898;2023-01-23T05:21:48;4.67;;;4.27;;
11865;SDS011;5992;52.744;6.898;2023-01-23T05:25:00;5.70;;;4.60;;
11865;SDS011;5992;52.744;6.898;2023-01-23T05:28:13;7.23;;;4.63;;
11865;SDS011;5992;52.744;6.898;2023-01-23T05:31:39;5.67;;;4.70;;
11865;SDS011;5992;52.744;6.898;2023-01-23T05:34:51;7.43;;;5.20;;
11865;SDS011;5992;52.744;6.898;2023-01-23T05:38:03;7.60;;;5.20;;
11865;SDS011;5992;52.744;6.898;2023-01-23T05:41:27;4.83;;;4.10;;
11865;SDS011;5992;52.744;6.898;2023-01-23T05:44:41;9.40;;;5.25;;
11865;SDS011;5992;52.744;6.898;2023-01-23T05:47:53;7.65;;;5.10;;
11865;SDS011;5992;52.744;6.898;2023-01-23T05:51:06;5.90;;;5.30;;
11865;SDS011;5992;52.744;6.898;2023-01-23T05:54:18;7.60;;;4.47;;
11865;SDS011;5992;52.744;6.898;2023-01-23T05:57:32;5.07;;;4.20;;
11865;SDS011;5992;52.744;6.898;2023-01-23T06:00:57;4.80;;;4.07;;
11865;SDS011;5992;52.744;6.898;2023-01-23T06:04:23;5.50;;;4.97;;
11865;SDS011;5992;52.744;6.898;2023-01-23T06:07:35;8.17;;;4.73;;
11865;SDS011;5992;52.744;6.898;2023-01-23T06:10:48;6.00;;;4.40;;
11865;SDS011;5992;52.744;6.898;2023-01-23T06:14:00;4.67;;;4.23;;
11865;SDS011;5992;52.744;6.898;2023-01-23T06:17:13;7.10;;;4.80;;
11865;SDS011;5992;52.744;6.898;2023-01-23T06:20:38;8.82;;;5.95;;
11865;SDS011;5992;52.744;6.898;2023-01-23T06:23:50;7.93;;;6.77;;
11865;SDS011;5992;52.744;6.898;2023-01-23T06:27:02;8.20;;;5.90;;
11865;SDS011;5992;52.744;6.898;2023-01-23T06:30:15;5.25;;;4.45;;
11865;SDS011;5992;52.744;6.898;2023-01-23T06:33:39;9.03;;;4.83;;
11865;SDS011;5992;52.744;6.898;2023-01-23T06:37:06;5.23;;;4.53;;
11865;SDS011;5992;52.744;6.898;2023-01-23T06:40:18;5.50;;;4.40;;
11865;SDS011;5992;52.744;6.898;2023-01-23T06:43:31;7.47;;;3.87;;
11865;SDS011;5992;52.744;6.898;2023-01-23T06:46:43;7.23;;;4.17;;
11865;SDS011;5992;52.744;6.898;2023-01-23T06:49:57;5.10;;;4.60;;
11865;SDS011;5992;52.744;6.898;2023-01-23T06:53:22;5.33;;;4.80;;
11865;SDS011;5992;52.744;6.898;2023-01-23T06:56:34;7.73;;;5.07;;
11865;SDS011;5992;52.744;6.898;2023-01-23T06:59:59;7.50;;;5.20;;
11865;SDS011;5992;52.744;6.898;2023-01-23T07:03:12;8.40;;;4.97;;
11865;SDS011;5992;52.744;6.898;2023-01-23T07:06:37;7.47;;;4.70;;
11865;SDS011;5992;52.744;6.898;2023-01-23T07:10:02;5.35;;;4.35;;
11865;SDS011;5992;52.744;6.898;2023-01-23T07:13:15;6.63;;;4.50;;
11865;SDS011;5992;52.744;6.898;2023-01-23T07:16:30;8.43;;;5.20;;
11865;SDS011;5992;52.744;6.898;2023-01-23T07:19:43;5.90;;;5.13;;
11865;SDS011;5992;52.744;6.898;2023-01-23T07:22:57;6.75;;;4.75;;
11865;SDS011;5992;52.744;6.898;2023-01-23T07:26:10;4.90;;;4.40;;
11865;SDS011;5992;52.744;6.898;2023-01-23T07:29:23;6.80;;;4.75;;
11865;SDS011;5992;52.744;6.898;2023-01-23T07:32:23;5.17;;;4.43;;
11865;SDS011;5992;52.744;6.898;2023-01-23T07:35:37;5.00;;;4.60;;
11865;SDS011;5992;52.744;6.898;2023-01-23T07:38:51;5.87;;;5.13;;
11865;SDS011;5992;52.744;6.898;2023-01-23T07:42:16;6.63;;;4.90;;
11865;SDS011;5992;52.744;6.898;2023-01-23T07:45:16;7.10;;;5.30;;
11865;SDS011;5992;52.744;6.898;2023-01-23T07:48:28;6.85;;;4.90;;
11865;SDS011;5992;52.744;6.898;2023-01-23T07:51:28;5.10;;;4.60;;
11865;SDS011;5992;52.744;6.898;2023-01-23T07:54:42;4.13;;;3.83;;
11865;SDS011;5992;52.744;6.898;2023-01-23T07:57:54;7.13;;;4.43;;
11865;SDS011;5992;52.744;6.898;2023-01-23T08:01:07;6.80;;;4.97;;
11865;SDS011;5992;52.744;6.898;2023-01-23T08:04:32;7.17;;;4.93;;
11865;SDS011;5992;52.744;6.898;2023-01-23T08:07:32;8.55;;;5.35;;
11865;SDS011;5992;52.744;6.898;2023-01-23T08:10:58;4.80;;;4.25;;
11865;SDS011;5992;52.744;6.898;2023-01-23T08:14:10;7.80;;;4.53;;
11865;SDS011;5992;52.744;6.898;2023-01-23T08:17:34;5.00;;;4.43;;
11865;SDS011;5992;52.744;6.898;2023-01-23T08:20:51;6.10;;;4.50;;
11865;SDS011;5992;52.744;6.898;2023-01-23T08:24:14;6.15;;;5.20;;
11865;SDS011;5992;52.744;6.898;2023-01-23T08:27:16;7.45;;;5.05;;
11865;SDS011;5992;52.744;6.898;2023-01-23T08:30:41;8.63;;;4.77;;
11865;SDS011;5992;52.744;6.898;2023-01-23T08:33:41;5.87;;;4.67;;
11865;SDS011;5992;52.744;6.898;2023-01-23T08:36:53;5.63;;;4.73;;
11865;SDS011;5992;52.744;6.898;2023-01-23T08:39:53;10.50;;;5.90;;
11865;SDS011;5992;52.744;6.898;2023-01-23T08:43:07;4.53;;;4.10;;
11865;SDS011;5992;52.744;6.898;2023-01-23T08:46:19;6.63;;;5.43;;
11865;SDS011;5992;52.744;6.898;2023-01-23T08:49:32;6.97;;;4.90;;
11865;SDS011;5992;52.744;6.898;2023-01-23T08:52:32;5.13;;;4.63;;
11865;SDS011;5992;52.744;6.898;2023-01-23T08:55:45;6.23;;;4.60;;
11865;SDS011;5992;52.744;6.898;2023-01-23T08:58:47;6.23;;;5.00;;
11865;SDS011;5992;52.744;6.898;2023-01-23T09:02:12;6.23;;;4.97;;
11865;SDS011;5992;52.744;6.898;2023-01-23T09:05:12;6.35;;;5.00;;
11865;SDS011;5992;52.744;6.898;2023-01-23T09:08:36;7.10;;;4.95;;
11865;SDS011;5992;52.744;6.898;2023-01-23T09:11:48;5.03;;;4.53;;
11865;SDS011;5992;52.744;6.898;2023-01-23T09:15:02;5.47;;;4.20;;
11865;SDS011;5992;52.744;6.898;2023-01-23T09:18:14;5.80;;;4.90;;
11865;SDS011;5992;52.744;6.898;2023-01-23T09:21:26;6.73;;;4.73;;
11865;SDS011;5992;52.744;6.898;2023-01-23T09:24:26;7.37;;;4.37;;
11865;SDS011;5992;52.744;6.898;2023-01-23T09:27:42;5.63;;;4.60;;
11865;SDS011;5992;52.744;6.898;2023-01-23T09:30:56;4.60;;;4.20;;
11865;SDS011;5992;52.744;6.898;2023-01-23T09:34:21;5.53;;;4.67;;
11865;SDS011;5992;52.744;6.898;2023-01-23T09:37:22;4.50;;;4.03;;
11865;SDS011;5992;52.744;6.898;2023-01-23T09:40:36;5.70;;;4.83;;
11865;SDS011;5992;52.744;6.898;2023-01-23T09:43:49;7.40;;;4.83;;
11865;SDS011;5992;52.744;6.898;2023-01-23T09:47:15;7.00;;;4.77;;
11865;SDS011;5992;52.744;6.898;2023-01-23T09:50:30;5.45;;;4.35;;
11865;SDS011;5992;52.744;6.898;2023-01-23T09:53:57;6.73;;;4.43;;
11865;SDS011;5992;52.744;6.898;2023-01-23T09:57:11;7.00;;;4.60;;
11865;SDS011;5992;52.744;6.898;2023-01-23T10:00:36;5.73;;;4.43;;
11865;SDS011;5992;52.744;6.898;2023-01-23T10:03:49;6.93;;;4.67;;
11865;SDS011;5992;52.744;6.898;2023-01-23T10:07:12;5.23;;;4.60;;
11865;SDS011;5992;52.744;6.898;2023-01-23T10:10:39;7.37;;;4.87;;
11865;SDS011;5992;52.744;6.898;2023-01-23T10:13:53;5.40;;;4.25;;
11865;SDS011;5992;52.744;6.898;2023-01-23T10:17:19;7.57;;;5.90;;
11865;SDS011;5992;52.744;6.898;2023-01-23T10:20:41;5.77;;;4.43;;
11865;SDS011;5992;52.744;6.898;2023-01-23T10:24:04;8.70;;;5.20;;
11865;SDS011;5992;52.744;6.898;2023-01-23T10:27:17;4.90;;;4.40;;
11865;SDS011;5992;52.744;6.898;2023-01-23T10:30:41;5.70;;;4.30;;
11865;SDS011;5992;52.744;6.898;2023-01-23T10:33:53;5.83;;;4.63;;
11865;SDS011;5992;52.744;6.898;2023-01-23T10:37:19;6.13;;;4.90;;
11865;SDS011;5992;52.744;6.898;2023-01-23T10:40:31;6.27;;;5.00;;
11865;SDS011;5992;52.744;6.898;2023-01-23T10:43:50;11.10;;;5.40;;
11865;SDS011;5992;52.744;6.898;2023-01-23T10:47:10;7.13;;;3.93;;
11865;SDS011;5992;52.744;6.898;2023-01-23T10:50:35;6.47;;;4.97;;
11865;SDS011;5992;52.744;6.898;2023-01-23T10:53:57;6.67;;;5.23;;
11865;SDS011;5992;52.744;6.898;2023-01-23T10:57:24;8.63;;;5.07;;
11865;SDS011;5992;52.744;6.898;2023-01-23T11:00:36;6.37;;;5.07;;
11865;SDS011;5992;52.744;6.898;2023-01-23T11:04:09;6.40;;;5.23;;
11865;SDS011;5992;52.744;6.898;2023-01-23T11:07:22;6.17;;;5.30;;
11865;SDS011;5992;52.744;6.898;2023-01-23T11:10:49;6.63;;;5.53;;
11865;SDS011;5992;52.744;6.898;2023-01-23T11:14:03;6.70;;;5.20;;
11865;SDS011;5992;52.744;6.898;2023-01-23T11:17:31;8.10;;;5.07;;
11865;SDS011;5992;52.744;6.898;2023-01-23T11:20:41;5.67;;;4.53;;
11865;SDS011;5992;52.744;6.898;2023-01-23T11:24:08;6.33;;;5.17;;
11865;SDS011;5992;52.744;6.898;2023-01-23T11:27:22;6.60;;;6.00;;
11865;SDS011;5992;52.744;6.898;2023-01-23T11:30:46;6.50;;;5.40;;
11865;SDS011;5992;52.744;6.898;2023-01-23T11:34:00;7.95;;;5.40;;
11865;SDS011;5992;52.744;6.898;2023-01-23T11:37:23;6.60;;;5.70;;
11865;SDS011;5992;52.744;6.898;2023-01-23T11:40:34;7.23;;;4.77;;
11865;SDS011;5992;52.744;6.898;2023-01-23T11:43:59;5.30;;;4.80;;
11865;SDS011;5992;52.744;6.898;2023-01-23T11:50:52;8.93;;;5.00;;
11865;SDS011;5992;52.744;6.898;2023-01-23T11:54:09;8.93;;;5.10;;
11865;SDS011;5992;52.744;6.898;2023-01-23T11:57:33;5.90;;;5.13;;
11865;SDS011;5992;52.744;6.898;2023-01-23T12:00:46;5.77;;;4.67;;
11865;SDS011;5992;52.744;6.898;2023-01-23T12:04:19;7.20;;;5.20;;
11865;SDS011;5992;52.744;6.898;2023-01-23T12:07:31;7.85;;;5.60;;
11865;SDS011;5992;52.744;6.898;2023-01-23T12:10:58;6.73;;;5.17;;
11865;SDS011;5992;52.744;6.898;2023-01-23T12:14:11;7.97;;;5.70;;
11865;SDS011;5992;52.744;6.898;2023-01-23T12:17:39;6.20;;;5.40;;
11865;SDS011;5992;52.744;6.898;2023-01-23T12:20:51;8.73;;;5.73;;
11865;SDS011;5992;52.744;6.898;2023-01-23T12:24:16;5.33;;;4.83;;
11865;SDS011;5992;52.744;6.898;2023-01-23T12:27:31;7.33;;;5.27;;
11865;SDS011;5992;52.744;6.898;2023-01-23T12:30:58;6.50;;;5.20;;
11865;SDS011;5992;52.744;6.898;2023-01-23T12:34:18;6.87;;;5.27;;
11865;SDS011;5992;52.744;6.898;2023-01-23T12:41:05;8.90;;;5.63;;
11865;SDS011;5992;52.744;6.898;2023-01-23T12:44:29;8.27;;;5.83;;
11865;SDS011;5992;52.744;6.898;2023-01-23T12:47:42;7.23;;;5.60;;
11865;SDS011;5992;52.744;6.898;2023-01-23T12:51:07;6.90;;;6.00;;
11865;SDS011;5992;52.744;6.898;2023-01-23T12:54:20;7.27;;;5.27;;
11865;SDS011;5992;52.744;6.898;2023-01-23T12:57:44;6.93;;;5.97;;
11865;SDS011;5992;52.744;6.898;2023-01-23T13:01:09;6.53;;;5.53;;
11865;SDS011;5992;52.744;6.898;2023-01-23T13:04:40;6.80;;;6.13;;
11865;SDS011;5992;52.744;6.898;2023-01-23T13:07:53;7.83;;;5.87;;
11865;SDS011;5992;52.744;6.898;2023-01-23T13:11:17;6.20;;;5.10;;
11865;SDS011;5992;52.744;6.898;2023-01-23T13:14:40;7.00;;;6.10;;
11865;SDS011;5992;52.744;6.898;2023-01-23T13:17:58;6.40;;;5.40;;
11865;SDS011;5992;52.744;6.898;2023-01-23T13:21:12;11.03;;;6.37;;
11865;SDS011;5992;52.744;6.898;2023-01-23T13:24:36;7.67;;;5.60;;
11865;SDS011;5992;52.744;6.898;2023-01-23T13:27:52;8.40;;;5.97;;
11865;SDS011;5992;52.744;6.898;2023-01-23T13:31:23;8.00;;;5.85;;
11865;SDS011;5992;52.744;6.898;2023-01-23T13:34:35;10.10;;;5.90;;
11865;SDS011;5992;52.744;6.898;2023-01-23T13:37:58;7.40;;;5.63;;
11865;SDS011;5992;52.744;6.898;2023-01-23T13:51:52;5.80;;;5.17;;
11865;SDS011;5992;52.744;6.898;2023-01-23T13:55:13;5.20;;;4.70;;
11865;SDS011;5992;52.744;6.898;2023-01-23T13:58:46;12.07;;;6.87;;
11865;SDS011;5992;52.744;6.898;2023-01-23T14:02:03;10.93;;;6.10;;
11865;SDS011;5992;52.744;6.898;2023-01-23T14:05:34;6.57;;;5.93;;
11865;SDS011;5992;52.744;6.898;2023-01-23T14:08:46;7.27;;;5.90;;
11865;SDS011;5992;52.744;6.898;2023-01-23T14:12:12;8.87;;;6.37;;
11865;SDS011;5992;52.744;6.898;2023-01-23T14:15:19;7.70;;;6.90;;
11865;SDS011;5992;52.744;6.898;2023-01-23T14:18:55;9.07;;;7.20;;
11865;SDS011;5992;52.744;6.898;2023-01-23T14:22:11;6.90;;;6.20;;
11865;SDS011;5992;52.744;6.898;2023-01-23T14:25:37;11.80;;;7.10;;
11865;SDS011;5992;52.744;6.898;2023-01-23T14:28:53;8.20;;;6.45;;
11865;SDS011;5992;52.744;6.898;2023-01-23T14:32:22;7.43;;;6.53;;
11865;SDS011;5992;52.744;6.898;2023-01-23T14:35:34;9.67;;;7.20;;
11865;SDS011;5992;52.744;6.898;2023-01-23T14:38:59;7.53;;;6.20;;
11865;SDS011;5992;52.744;6.898;2023-01-23T14:42:15;7.83;;;6.40;;
11865;SDS011;5992;52.744;6.898;2023-01-23T14:45:37;8.53;;;7.20;;
11865;SDS011;5992;52.744;6.898;2023-01-23T14:48:50;7.83;;;6.40;;
11865;SDS011;5992;52.744;6.898;2023-01-23T14:52:19;7.27;;;6.27;;
11865;SDS011;5992;52.744;6.898;2023-01-23T14:55:31;7.45;;;6.10;;
11865;SDS011;5992;52.744;6.898;2023-01-23T14:58:57;10.07;;;6.97;;
11865;SDS011;5992;52.744;6.898;2023-01-23T15:02:24;9.17;;;6.63;;
11865;SDS011;5992;52.744;6.898;2023-01-23T15:05:54;9.53;;;6.23;;
11865;SDS011;5992;52.744;6.898;2023-01-23T15:09:07;8.13;;;6.50;;
11865;SDS011;5992;52.744;6.898;2023-01-23T15:12:30;8.53;;;6.33;;
11865;SDS011;5992;52.744;6.898;2023-01-23T15:15:32;9.93;;;6.90;;
11865;SDS011;5992;52.744;6.898;2023-01-23T15:18:58;10.30;;;7.10;;
11865;SDS011;5992;52.744;6.898;2023-01-23T15:22:15;6.63;;;5.70;;
11865;SDS011;5992;52.744;6.898;2023-01-23T15:25:40;9.70;;;6.93;;
11865;SDS011;5992;52.744;6.898;2023-01-23T15:28:52;8.30;;;6.77;;
11865;SDS011;5992;52.744;6.898;2023-01-23T15:32:19;10.00;;;7.53;;
11865;SDS011;5992;52.744;6.898;2023-01-23T15:35:30;8.97;;;7.07;;
11865;SDS011;5992;52.744;6.898;2023-01-23T15:38:54;7.93;;;6.30;;
11865;SDS011;5992;52.744;6.898;2023-01-23T15:42:22;9.00;;;6.53;;
11865;SDS011;5992;52.744;6.898;2023-01-23T15:45:44;9.20;;;7.07;;
11865;SDS011;5992;52.744;6.898;2023-01-23T15:49:00;8.83;;;6.83;;
11865;SDS011;5992;52.744;6.898;2023-01-23T15:52:26;9.27;;;6.23;;
11865;SDS011;5992;52.744;6.898;2023-01-23T15:55:37;9.87;;;7.37;;
11865;SDS011;5992;52.744;6.898;2023-01-23T15:59:01;8.13;;;6.43;;
11865;SDS011;5992;52.744;6.898;2023-01-23T16:02:01;9.10;;;6.60;;
11865;SDS011;5992;52.744;6.898;2023-01-23T16:05:30;8.33;;;7.13;;
11865;SDS011;5992;52.744;6.898;2023-01-23T16:08:41;8.37;;;6.83;;
11865;SDS011;5992;52.744;6.898;2023-01-23T16:11:53;11.05;;;7.20;;
11865;SDS011;5992;52.744;6.898;2023-01-23T16:14:53;9.10;;;7.20;;
11865;SDS011;5992;52.744;6.898;2023-01-23T16:18:17;9.40;;;6.90;;
11865;SDS011;5992;52.744;6.898;2023-01-23T16:21:18;12.07;;;7.70;;
11865;SDS011;5992;52.744;6.898;2023-01-23T16:24:43;8.17;;;6.43;;
11865;SDS011;5992;52.744;6.898;2023-01-23T16:27:56;8.63;;;7.27;;
11865;SDS011;5992;52.744;6.898;2023-01-23T16:31:20;9.45;;;7.65;;
11865;SDS011;5992;52.744;6.898;2023-01-23T16:34:32;9.83;;;7.53;;
11865;SDS011;5992;52.744;6.898;2023-01-23T16:37:52;9.13;;;7.30;;
11865;SDS011;5992;52.744;6.898;2023-01-23T16:41:04;10.23;;;7.03;;
11865;SDS011;5992;52.744;6.898;2023-01-23T16:44:17;9.77;;;8.00;;
11865;SDS011;5992;52.744;6.898;2023-01-23T16:47:28;10.53;;;7.83;;
11865;SDS011;5992;52.744;6.898;2023-01-23T16:50:41;8.97;;;7.57;;
11865;SDS011;5992;52.744;6.898;2023-01-23T16:53:54;9.87;;;7.33;;
11865;SDS011;5992;52.744;6.898;2023-01-23T16:57:19;8.00;;;6.87;;
11865;SDS011;5992;52.744;6.898;2023-01-23T17:00:31;10.37;;;7.73;;
11865;SDS011;5992;52.744;6.898;2023-01-23T17:03:56;12.93;;;8.17;;
11865;SDS011;5992;52.744;6.898;2023-01-23T17:07:11;10.57;;;7.40;;
11865;SDS011;5992;52.744;6.898;2023-01-23T17:10:36;11.13;;;7.73;;
11865;SDS011;5992;52.744;6.898;2023-01-23T17:13:50;9.27;;;7.37;;
11865;SDS011;5992;52.744;6.898;2023-01-23T17:17:14;10.33;;;8.03;;
11865;SDS011;5992;52.744;6.898;2023-01-23T17:20:26;8.70;;;7.43;;
11865;SDS011;5992;52.744;6.898;2023-01-23T17:23:53;12.10;;;8.00;;
11865;SDS011;5992;52.744;6.898;2023-01-23T17:26:54;10.90;;;7.97;;
11865;SDS011;5992;52.744;6.898;2023-01-23T17:30:19;10.53;;;7.53;;
11865;SDS011;5992;52.744;6.898;2023-01-23T17:33:31;9.33;;;7.30;;
11865;SDS011;5992;52.744;6.898;2023-01-23T17:36:56;9.77;;;7.60;;
11865;SDS011;5992;52.744;6.898;2023-01-23T17:40:11;10.00;;;8.50;;
11865;SDS011;5992;52.744;6.898;2023-01-23T17:43:38;10.23;;;7.63;;
11865;SDS011;5992;52.744;6.898;2023-01-23T17:46:51;9.27;;;7.70;;
11865;SDS011;5992;52.744;6.898;2023-01-23T17:50:04;9.95;;;7.20;;
11865;SDS011;5992;52.744;6.898;2023-01-23T17:53:05;12.43;;;9.63;;
11865;SDS011;5992;52.744;6.898;2023-01-23T17:56:18;11.10;;;7.80;;
11865;SDS011;5992;52.744;6.898;2023-01-23T17:59:19;12.77;;;7.80;;
11865;SDS011;5992;52.744;6.898;2023-01-23T18:02:45;9.93;;;7.10;;
11865;SDS011;5992;52.744;6.898;2023-01-23T18:06:09;8.67;;;7.13;;
11865;SDS011;5992;52.744;6.898;2023-01-23T18:09:09;10.35;;;8.15;;
11865;SDS011;5992;52.744;6.898;2023-01-23T18:12:24;12.87;;;8.13;;
11865;SDS011;5992;52.744;6.898;2023-01-23T18:15:40;12.47;;;8.60;;
11865;SDS011;5992;52.744;6.898;2023-01-23T18:19:08;10.87;;;7.87;;
11865;SDS011;5992;52.744;6.898;2023-01-23T18:22:16;13.03;;;7.53;;
11865;SDS011;5992;52.744;6.898;2023-01-23T18:25:29;9.20;;;6.87;;
11865;SDS011;5992;52.744;6.898;2023-01-23T18:28:34;11.10;;;8.00;;
11865;SDS011;5992;52.744;6.898;2023-01-23T18:32:05;12.03;;;8.00;;
11865;SDS011;5992;52.744;6.898;2023-01-23T18:35:19;10.00;;;7.90;;
11865;SDS011;5992;52.744;6.898;2023-01-23T18:38:47;11.27;;;8.13;;
11865;SDS011;5992;52.744;6.898;2023-01-23T18:41:58;10.53;;;7.43;;
11865;SDS011;5992;52.744;6.898;2023-01-23T18:45:21;9.87;;;8.17;;
11865;SDS011;5992;52.744;6.898;2023-01-23T18:48:24;11.60;;;7.87;;
11865;SDS011;5992;52.744;6.898;2023-01-23T18:51:52;11.10;;;7.75;;
11865;SDS011;5992;52.744;6.898;2023-01-23T18:55:04;10.70;;;8.40;;
11865;SDS011;5992;52.744;6.898;2023-01-23T18:58:30;11.50;;;8.00;;
11865;SDS011;5992;52.744;6.898;2023-01-23T19:01:42;11.17;;;8.30;;
11865;SDS011;5992;52.744;6.898;2023-01-23T19:05:16;11.33;;;8.07;;
11865;SDS011;5992;52.744;6.898;2023-01-23T19:08:27;10.97;;;7.90;;
11865;SDS011;5992;52.744;6.898;2023-01-23T19:12:01;10.43;;;8.10;;
11865;SDS011;5992;52.744;6.898;2023-01-23T19:15:17;10.27;;;8.33;;
11865;SDS011;5992;52.744;6.898;2023-01-23T19:18:42;11.50;;;9.23;;
11865;SDS011;5992;52.744;6.898;2023-01-23T19:21:55;10.37;;;8.23;;
11865;SDS011;5992;52.744;6.898;2023-01-23T19:25:18;13.03;;;8.27;;
11865;SDS011;5992;52.744;6.898;2023-01-23T19:28:19;14.30;;;9.47;;
11865;SDS011;5992;52.744;6.898;2023-01-23T19:31:33;13.10;;;8.80;;
11865;SDS011;5992;52.744;6.898;2023-01-23T19:34:45;12.50;;;8.90;;
11865;SDS011;5992;52.744;6.898;2023-01-23T19:38:00;13.13;;;8.57;;
11865;SDS011;5992;52.744;6.898;2023-01-23T19:41:14;12.57;;;9.00;;
11865;SDS011;5992;52.744;6.898;2023-01-23T19:44:40;11.60;;;8.00;;
11865;SDS011;5992;52.744;6.898;2023-01-23T19:47:52;10.80;;;8.90;;
11865;SDS011;5992;52.744;6.898;2023-01-23T19:51:04;11.33;;;8.30;;
11865;SDS011;5992;52.744;6.898;2023-01-23T19:54:18;13.93;;;9.13;;
11865;SDS011;5992;52.744;6.898;2023-01-23T19:57:42;12.50;;;8.47;;
11865;SDS011;5992;52.744;6.898;2023-01-23T20:00:42;11.63;;;8.30;;
11865;SDS011;5992;52.744;6.898;2023-01-23T20:03:57;13.53;;;9.93;;
11865;SDS011;5992;52.744;6.898;2023-01-23T20:06:57;13.67;;;9.80;;
11865;SDS011;5992;52.744;6.898;2023-01-23T20:10:11;15.33;;;10.33;;
11865;SDS011;5992;52.744;6.898;2023-01-23T20:13:23;13.20;;;8.57;;
11865;SDS011;5992;52.744;6.898;2023-01-23T20:16:35;11.85;;;8.15;;
11865;SDS011;5992;52.744;6.898;2023-01-23T20:19:47;17.17;;;10.30;;